Weather at General Manuel Carlos Piar International Airport

Public forecast

Using degrees Celsius for public forecast. Weather courtesy of forecast.io.

Closest aviation weather report (METAR) to General Manuel Carlos Piar International Airport

Report is more than 2 hours old.

Closest report is General José Antonio Anzoategui International Airport, 158.4 nm (293.3 km) NW.

2024/04/12 15:00 (retrieved 3 hours ago)

SVBC 121500Z 36006KT 8000 HZ FEW013 31/XX Q1015

Closest aviation forecast (TAF) to General Manuel Carlos Piar International Airport

Closest forecast is Mabaruma Airport, 177.3 nm (328.4 km) E.

2024/04/12 12:00 (retrieved 6 hours ago)

TAF SYMB 121100Z 1212/1223 07012KT 5000 SHRA BKN016 BKN040 BECMG 1216/1219 9999 BKN020 SCT045